createdAt,value
2024-01-16T00:07:13.072Z,1.5
2024-01-16T00:22:38.211Z,1.6
2024-01-16T00:38:02.949Z,1.6
2024-01-16T00:53:28.358Z,1.7
2024-01-16T01:08:53.614Z,1.6
2024-01-16T01:24:17.971Z,1.6
2024-01-16T01:39:43.026Z,1.5
2024-01-16T01:55:07.600Z,1.4
2024-01-16T02:10:32.821Z,1.4
2024-01-16T02:25:58.015Z,1.3
2024-01-16T02:41:22.671Z,1.2
2024-01-16T02:56:47.791Z,1.1
2024-01-16T03:12:13.212Z,1.1
2024-01-16T03:27:37.278Z,0.9
2024-01-16T03:43:02.016Z,0.8
2024-01-16T03:58:27.466Z,0.8
2024-01-16T04:13:53.100Z,0.8
2024-01-16T04:29:18.259Z,0.8
2024-01-16T04:44:43.659Z,0.8
2024-01-16T05:00:07.905Z,0.7
2024-01-16T05:15:33.110Z,0.6
2024-01-16T05:30:57.663Z,0.5
2024-01-16T05:46:23.022Z,0.4
2024-01-16T06:01:47.663Z,0.5
2024-01-16T06:17:12.514Z,0.5
2024-01-16T06:32:37.706Z,0.5
2024-01-16T06:48:03.424Z,0.6
2024-01-16T07:03:29.730Z,0.6
2024-01-16T07:18:54.165Z,0.6
2024-01-16T07:34:19.936Z,0.5
2024-01-16T07:49:46.493Z,0.5
2024-01-16T08:05:11.291Z,0.5
2024-01-16T08:20:36.899Z,0.6
2024-01-16T08:36:01.824Z,0.6
2024-01-16T08:51:27.249Z,0.7
2024-01-16T09:06:52.077Z,0.8
2024-01-16T09:22:17.474Z,0.9
2024-01-16T09:37:42.618Z,1
2024-01-16T09:53:08.332Z,1.2
2024-01-16T10:08:33.569Z,1.4
2024-01-16T10:23:59.594Z,1.6
2024-01-16T10:39:29.460Z,1.7
2024-01-16T10:55:09.200Z,1.8
2024-01-16T11:10:34.046Z,2
2024-01-16T11:25:59.347Z,2
2024-01-16T11:41:32.794Z,2.1
2024-01-16T11:57:08.281Z,1.9
2024-01-16T12:12:33.138Z,1.9
2024-01-16T12:27:57.910Z,1.9
2024-01-16T12:43:23.039Z,1.9
2024-01-16T12:58:47.827Z,2
2024-01-16T13:14:13.028Z,1.9
2024-01-16T13:29:38.524Z,1.8
2024-01-16T13:45:04.304Z,1.8
2024-01-16T14:00:30.590Z,1.9
2024-01-16T14:15:56.203Z,1.8
2024-01-16T14:31:21.306Z,1.8
2024-01-16T14:46:47.764Z,1.8
2024-01-16T15:02:19.369Z,1.8
2024-01-16T15:17:44.636Z,1.6
2024-01-16T15:33:11.061Z,1.4
2024-01-16T15:48:37.380Z,1.1
2024-01-16T16:04:02.785Z,0.9
2024-01-16T16:19:28.179Z,0.8
2024-01-16T16:34:53.986Z,0.8
2024-01-16T16:50:19.810Z,0.8
2024-01-16T17:05:44.738Z,0.9
2024-01-16T17:21:11.121Z,0.9
2024-01-16T17:36:36.367Z,0.8
2024-01-16T17:52:02.631Z,0.7
2024-01-16T18:07:27.660Z,0.7
2024-01-16T18:22:53.368Z,0.6
2024-01-16T18:38:20.592Z,0.6
2024-01-16T18:53:47.094Z,0.5
2024-01-16T19:09:12.749Z,0.4
2024-01-16T19:24:38.050Z,0.3
2024-01-16T19:40:03.265Z,0.2
2024-01-16T19:55:28.235Z,0.1
2024-01-16T20:10:53.507Z,0
2024-01-16T20:26:18.161Z,-0.1
2024-01-16T20:41:43.565Z,-0.2
2024-01-16T20:57:08.852Z,-0.3
2024-01-16T21:12:34.070Z,-0.4
2024-01-16T21:28:04.576Z,-0.4
2024-01-16T21:43:30.675Z,-0.6
2024-01-16T21:58:56.391Z,-0.6
2024-01-16T22:14:21.757Z,-0.7
2024-01-16T22:29:47.057Z,-0.7
2024-01-16T22:45:12.264Z,-0.8
2024-01-16T23:00:38.321Z,-0.9
2024-01-16T23:16:04.147Z,-0.9
2024-01-16T23:31:29.157Z,-1
2024-01-16T23:46:54.866Z,-1
